PWSweather.com
Personal Weather Stations
Station Observations
IMAZOWIE6
WarszawaPL

WarszawaPL

Lat: 52.27957, Lon: 21.05489

Elevation: 100

Station Type: WS1080

http://stacjapogody.waw.pl/

High Low Average
Temperature 49.6°F9.8°C 41.9°F5.5°C 46.4°F8.0°C
Dew Point -167.8°F-111.0°C -168.6°F-111.4°C -168.2°F-111.2°C
Winds 2.8 mph 4.5 kmh Calm Calm 1.0 mph N1.6 kmh N
Wind Gusts 8.2 mph13.2 kmh -- 3.0 mph4.8 kmh
Humidity - - -
Pressure 29.06 in984.1 mb 28.88 in978.0 mb -
Precipitation 0.00 in0.0 mm - -
Hour Temp Dew Point Humidity Winds Wind Gusts Pressure Precip Precip Rate Daily Precip Total
12:03 AM 44.2°F6.8°C -168.4°F-111.3°C - 2.0 mph N3.2 kmh N 6.2 mph10.0 kmh 28.95 in980.4 mb 0.00 in0.0 mm 0.00 in0.0 mm 0.00 in0.0 mm
12:18 AM 44.2°F6.8°C -168.4°F-111.3°C - 2.0 mph N3.2 kmh N 5.4 mph8.7 kmh 28.94 in980.0 mb 0.00 in0.0 mm 0.00 in0.0 mm 0.00 in0.0 mm
12:33 AM 44.6°F7.0°C -168.3°F-111.3°C - 0.6 mph N1.0 kmh N 2.8 mph4.5 kmh 28.93 in979.7 mb 0.00 in0.0 mm 0.00 in0.0 mm 0.00 in0.0 mm
12:48 AM 44.4°F6.9°C -168.4°F-111.3°C - 2.0 mph N3.2 kmh N 6.2 mph10.0 kmh 28.93 in979.7 mb 0.00 in0.0 mm 0.00 in0.0 mm 0.00 in0.0 mm
01:03 AM 44.6°F7.0°C -168.3°F-111.3°C - 1.4 mph N2.3 kmh N 4.8 mph7.7 kmh 28.93 in979.7 mb 0.00 in0.0 mm 0.00 in0.0 mm 0.00 in0.0 mm
01:18 AM 44.4°F6.9°C -168.4°F-111.3°C - 1.4 mph N2.3 kmh N 4.8 mph7.7 kmh 28.93 in979.7 mb 0.00 in0.0 mm 0.00 in0.0 mm 0.00 in0.0 mm
01:33 AM 44.6°F7.0°C -168.3°F-111.3°C - 1.4 mph N2.3 kmh N 3.4 mph5.5 kmh 28.93 in979.7 mb 0.00 in0.0 mm 0.00 in0.0 mm 0.00 in0.0 mm
01:48 AM 44.4°F6.9°C -168.4°F-111.3°C - 1.4 mph N2.3 kmh N 4.8 mph7.7 kmh 28.92 in979.3 mb 0.00 in0.0 mm 0.00 in0.0 mm 0.00 in0.0 mm
02:03 AM 44.2°F6.8°C -168.4°F-111.3°C - 2.0 mph N3.2 kmh N 6.2 mph10.0 kmh 28.92 in979.3 mb 0.00 in0.0 mm 0.00 in0.0 mm 0.00 in0.0 mm
02:18 AM 44.2°F6.8°C -168.4°F-111.3°C - Calm Calm 2.8 mph4.5 kmh 28.93 in979.7 mb 0.00 in0.0 mm 0.00 in0.0 mm 0.00 in0.0 mm
02:33 AM 44.2°F6.8°C -168.4°F-111.3°C - 2.0 mph N3.2 kmh N 5.4 mph8.7 kmh 28.92 in979.3 mb 0.00 in0.0 mm 0.00 in0.0 mm 0.00 in0.0 mm
02:48 AM 44.2°F6.8°C -168.4°F-111.3°C - 0.6 mph N1.0 kmh N 4.8 mph7.7 kmh 28.93 in979.7 mb 0.00 in0.0 mm 0.00 in0.0 mm 0.00 in0.0 mm
03:03 AM 44.2°F6.8°C -168.4°F-111.3°C - 0.6 mph N1.0 kmh N 3.4 mph5.5 kmh 28.91 in979.0 mb 0.00 in0.0 mm 0.00 in0.0 mm 0.00 in0.0 mm
03:18 AM 44.1°F6.7°C -168.4°F-111.3°C - 0.6 mph N1.0 kmh N 2.8 mph4.5 kmh 28.91 in979.0 mb 0.00 in0.0 mm 0.00 in0.0 mm 0.00 in0.0 mm
03:33 AM 44.2°F6.8°C -168.4°F-111.3°C - 1.4 mph N2.3 kmh N 4.8 mph7.7 kmh 28.91 in979.0 mb 0.00 in0.0 mm 0.00 in0.0 mm 0.00 in0.0 mm
03:48 AM 43.9°F6.6°C -168.4°F-111.3°C - 0.6 mph N1.0 kmh N 4.8 mph7.7 kmh 28.91 in979.0 mb 0.00 in0.0 mm 0.00 in0.0 mm 0.00 in0.0 mm
04:03 AM 44.4°F6.9°C -168.4°F-111.3°C - Calm Calm 1.4 mph2.3 kmh 28.90 in978.7 mb 0.00 in0.0 mm 0.00 in0.0 mm 0.00 in0.0 mm
04:18 AM 44.6°F7.0°C -168.3°F-111.3°C - 0.6 mph N1.0 kmh N 4.8 mph7.7 kmh 28.91 in979.0 mb 0.00 in0.0 mm 0.00 in0.0 mm 0.00 in0.0 mm
04:33 AM 44.8°F7.1°C -168.3°F-111.3°C - 0.6 mph N1.0 kmh N 4.8 mph7.7 kmh 28.91 in979.0 mb 0.00 in0.0 mm 0.00 in0.0 mm 0.00 in0.0 mm
04:48 AM 44.8°F7.1°C -168.3°F-111.3°C - 0.6 mph N1.0 kmh N 4.0 mph6.4 kmh 28.91 in979.0 mb 0.00 in0.0 mm 0.00 in0.0 mm 0.00 in0.0 mm
05:03 AM 44.8°F7.1°C -168.3°F-111.3°C - 2.0 mph N3.2 kmh N 6.8 mph10.9 kmh 28.91 in979.0 mb 0.00 in0.0 mm 0.00 in0.0 mm 0.00 in0.0 mm
05:18 AM 44.8°F7.1°C -168.3°F-111.3°C - Calm Calm 4.0 mph6.4 kmh 28.91 in979.0 mb 0.00 in0.0 mm 0.00 in0.0 mm 0.00 in0.0 mm
05:33 AM 45.0°F7.2°C -168.3°F-111.3°C - 1.4 mph N2.3 kmh N 6.8 mph10.9 kmh 28.91 in979.0 mb 0.00 in0.0 mm 0.00 in0.0 mm 0.00 in0.0 mm
05:48 AM 45.0°F7.2°C -168.3°F-111.3°C - 1.4 mph N2.3 kmh N 4.0 mph6.4 kmh 28.91 in979.0 mb 0.00 in0.0 mm 0.00 in0.0 mm 0.00 in0.0 mm
06:03 AM 45.3°F7.4°C -168.3°F-111.3°C - 2.0 mph N3.2 kmh N 4.0 mph6.4 kmh 28.91 in979.0 mb 0.00 in0.0 mm 0.00 in0.0 mm 0.00 in0.0 mm
06:18 AM 45.5°F7.5°C -168.3°F-111.3°C - 1.4 mph N2.3 kmh N 4.0 mph6.4 kmh 28.90 in978.7 mb 0.00 in0.0 mm 0.00 in0.0 mm 0.00 in0.0 mm
06:33 AM 45.5°F7.5°C -168.3°F-111.3°C - 1.4 mph N2.3 kmh N 3.4 mph5.5 kmh 28.91 in979.0 mb 0.00 in0.0 mm 0.00 in0.0 mm 0.00 in0.0 mm
06:48 AM 45.5°F7.5°C -168.3°F-111.3°C - 2.0 mph N3.2 kmh N 6.2 mph10.0 kmh 28.90 in978.7 mb 0.00 in0.0 mm 0.00 in0.0 mm 0.00 in0.0 mm
07:03 AM 45.7°F7.6°C -168.2°F-111.2°C - 1.4 mph N2.3 kmh N 4.0 mph6.4 kmh 28.90 in978.7 mb 0.00 in0.0 mm 0.00 in0.0 mm 0.00 in0.0 mm
07:18 AM 45.9°F7.7°C -168.2°F-111.2°C - Calm Calm 3.4 mph5.5 kmh 28.90 in978.7 mb 0.00 in0.0 mm 0.00 in0.0 mm 0.00 in0.0 mm
07:33 AM 46.0°F7.8°C -168.2°F-111.2°C - Calm Calm 3.4 mph5.5 kmh 28.90 in978.7 mb 0.00 in0.0 mm 0.00 in0.0 mm 0.00 in0.0 mm
07:48 AM 46.2°F7.9°C -168.2°F-111.2°C - Calm Calm 2.0 mph3.2 kmh 28.90 in978.7 mb 0.00 in0.0 mm 0.00 in0.0 mm 0.00 in0.0 mm
08:03 AM 46.2°F7.9°C -168.2°F-111.2°C - 0.6 mph N1.0 kmh N 2.8 mph4.5 kmh 28.90 in978.7 mb 0.00 in0.0 mm 0.00 in0.0 mm 0.00 in0.0 mm
08:18 AM 46.2°F7.9°C -168.2°F-111.2°C - Calm Calm 0.6 mph1.0 kmh 28.90 in978.7 mb 0.00 in0.0 mm 0.00 in0.0 mm 0.00 in0.0 mm
08:33 AM 46.0°F7.8°C -168.2°F-111.2°C - Calm Calm 0.6 mph1.0 kmh 28.90 in978.7 mb 0.00 in0.0 mm 0.00 in0.0 mm 0.00 in0.0 mm
08:48 AM 46.2°F7.9°C -168.2°F-111.2°C - 0.6 mph N1.0 kmh N 2.8 mph4.5 kmh 28.90 in978.7 mb 0.00 in0.0 mm 0.00 in0.0 mm 0.00 in0.0 mm
09:03 AM 46.4°F8.0°C -168.2°F-111.2°C - 1.4 mph N2.3 kmh N 4.8 mph7.7 kmh 28.91 in979.0 mb 0.00 in0.0 mm 0.00 in0.0 mm 0.00 in0.0 mm
09:18 AM 46.2°F7.9°C -168.2°F-111.2°C - Calm Calm 2.0 mph3.2 kmh 28.90 in978.7 mb 0.00 in0.0 mm 0.00 in0.0 mm 0.00 in0.0 mm
09:33 AM 46.2°F7.9°C -168.2°F-111.2°C - 0.6 mph N1.0 kmh N 3.4 mph5.5 kmh 28.91 in979.0 mb 0.00 in0.0 mm 0.00 in0.0 mm 0.00 in0.0 mm
09:48 AM 46.6°F8.1°C -168.1°F-111.2°C - Calm Calm 3.4 mph5.5 kmh 28.91 in979.0 mb 0.00 in0.0 mm 0.00 in0.0 mm 0.00 in0.0 mm
10:03 AM 46.8°F8.2°C -168.1°F-111.2°C - Calm Calm 2.0 mph3.2 kmh 28.91 in979.0 mb 0.00 in0.0 mm 0.00 in0.0 mm 0.00 in0.0 mm
10:18 AM 46.8°F8.2°C -168.1°F-111.2°C - 0.6 mph N1.0 kmh N 4.8 mph7.7 kmh 28.90 in978.7 mb 0.00 in0.0 mm 0.00 in0.0 mm 0.00 in0.0 mm
10:33 AM 47.3°F8.5°C -168.1°F-111.2°C - Calm Calm 0.6 mph1.0 kmh 28.90 in978.7 mb 0.00 in0.0 mm 0.00 in0.0 mm 0.00 in0.0 mm
10:48 AM 47.7°F8.7°C -168.0°F-111.1°C - Calm Calm 4.0 mph6.4 kmh 28.90 in978.7 mb 0.00 in0.0 mm 0.00 in0.0 mm 0.00 in0.0 mm
11:03 AM 47.7°F8.7°C -168.0°F-111.1°C - Calm Calm 2.8 mph4.5 kmh 28.90 in978.7 mb 0.00 in0.0 mm 0.00 in0.0 mm 0.00 in0.0 mm
11:18 AM 48.2°F9.0°C -168.0°F-111.1°C - 1.4 mph N2.3 kmh N 6.2 mph10.0 kmh 28.90 in978.7 mb 0.00 in0.0 mm 0.00 in0.0 mm 0.00 in0.0 mm
11:33 AM 48.6°F9.2°C -167.9°F-111.1°C - 2.8 mph N4.5 kmh N 6.2 mph10.0 kmh 28.90 in978.7 mb 0.00 in0.0 mm 0.00 in0.0 mm 0.00 in0.0 mm
11:48 AM 48.9°F9.4°C -167.9°F-111.1°C - 2.0 mph N3.2 kmh N 4.8 mph7.7 kmh 28.90 in978.7 mb 0.00 in0.0 mm 0.00 in0.0 mm 0.00 in0.0 mm
12:03 PM 49.1°F9.5°C -167.9°F-111.1°C - 0.6 mph N1.0 kmh N 4.8 mph7.7 kmh 28.90 in978.7 mb 0.00 in0.0 mm 0.00 in0.0 mm 0.00 in0.0 mm
12:18 PM 49.5°F9.7°C -167.9°F-111.1°C - 1.4 mph N2.3 kmh N 3.4 mph5.5 kmh 28.90 in978.7 mb 0.00 in0.0 mm 0.00 in0.0 mm 0.00 in0.0 mm
12:33 PM 49.1°F9.5°C -167.9°F-111.1°C - 1.4 mph N2.3 kmh N 4.8 mph7.7 kmh 28.90 in978.7 mb 0.00 in0.0 mm 0.00 in0.0 mm 0.00 in0.0 mm
12:48 PM 49.3°F9.6°C -167.9°F-111.1°C - 1.4 mph N2.3 kmh N 8.2 mph13.2 kmh 28.90 in978.7 mb 0.00 in0.0 mm 0.00 in0.0 mm 0.00 in0.0 mm
01:03 PM 49.5°F9.7°C -167.9°F-111.1°C - 0.6 mph N1.0 kmh N 3.4 mph5.5 kmh 28.89 in978.3 mb 0.00 in0.0 mm 0.00 in0.0 mm 0.00 in0.0 mm
01:18 PM 49.6°F9.8°C -167.8°F-111.0°C - Calm Calm 1.4 mph2.3 kmh 28.89 in978.3 mb 0.00 in0.0 mm 0.00 in0.0 mm 0.00 in0.0 mm
01:33 PM 49.6°F9.8°C -167.8°F-111.0°C - 0.6 mph N1.0 kmh N 2.8 mph4.5 kmh 28.88 in978.0 mb 0.00 in0.0 mm 0.00 in0.0 mm 0.00 in0.0 mm
01:48 PM 49.3°F9.6°C -167.9°F-111.1°C - Calm Calm 0.6 mph1.0 kmh 28.89 in978.3 mb 0.00 in0.0 mm 0.00 in0.0 mm 0.00 in0.0 mm
02:03 PM 48.6°F9.2°C -167.9°F-111.1°C - Calm Calm -- 28.88 in978.0 mb 0.00 in0.0 mm 0.00 in0.0 mm 0.00 in0.0 mm
02:18 PM 48.4°F9.1°C -168.0°F-111.1°C - Calm Calm 2.0 mph3.2 kmh 28.88 in978.0 mb 0.00 in0.0 mm 0.00 in0.0 mm 0.00 in0.0 mm
02:33 PM 47.7°F8.7°C -168.0°F-111.1°C - Calm Calm 0.6 mph1.0 kmh 28.88 in978.0 mb 0.00 in0.0 mm 0.00 in0.0 mm 0.00 in0.0 mm
02:48 PM 47.8°F8.8°C -168.0°F-111.1°C - Calm Calm -- 28.89 in978.3 mb 0.00 in0.0 mm 0.00 in0.0 mm 0.00 in0.0 mm
03:03 PM 47.7°F8.7°C -168.0°F-111.1°C - Calm Calm -- 28.89 in978.3 mb 0.00 in0.0 mm 0.00 in0.0 mm 0.00 in0.0 mm
03:18 PM 48.0°F8.9°C -168.0°F-111.1°C - Calm Calm 0.6 mph1.0 kmh 28.89 in978.3 mb 0.00 in0.0 mm 0.00 in0.0 mm 0.00 in0.0 mm
03:33 PM 48.6°F9.2°C -167.9°F-111.1°C - Calm Calm -- 28.89 in978.3 mb 0.00 in0.0 mm 0.00 in0.0 mm 0.00 in0.0 mm
03:48 PM 48.4°F9.1°C -168.0°F-111.1°C - 0.6 mph N1.0 kmh N 3.4 mph5.5 kmh 28.90 in978.7 mb 0.00 in0.0 mm 0.00 in0.0 mm 0.00 in0.0 mm
04:04 PM 48.2°F9.0°C -168.0°F-111.1°C - Calm Calm 2.8 mph4.5 kmh 28.89 in978.3 mb 0.00 in0.0 mm 0.00 in0.0 mm 0.00 in0.0 mm
04:18 PM 48.0°F8.9°C -168.0°F-111.1°C - Calm Calm 1.4 mph2.3 kmh 28.90 in978.7 mb 0.00 in0.0 mm 0.00 in0.0 mm 0.00 in0.0 mm
04:33 PM 47.8°F8.8°C -168.0°F-111.1°C - Calm Calm 3.4 mph5.5 kmh 28.90 in978.7 mb 0.00 in0.0 mm 0.00 in0.0 mm 0.00 in0.0 mm
04:48 PM 47.8°F8.8°C -168.0°F-111.1°C - Calm Calm 1.4 mph2.3 kmh 28.90 in978.7 mb 0.00 in0.0 mm 0.00 in0.0 mm 0.00 in0.0 mm
05:03 PM 47.8°F8.8°C -168.0°F-111.1°C - Calm Calm 2.8 mph4.5 kmh 28.90 in978.7 mb 0.00 in0.0 mm 0.00 in0.0 mm 0.00 in0.0 mm
05:18 PM 48.0°F8.9°C -168.0°F-111.1°C - Calm Calm 1.4 mph2.3 kmh 28.90 in978.7 mb 0.00 in0.0 mm 0.00 in0.0 mm 0.00 in0.0 mm
05:33 PM 48.0°F8.9°C -168.0°F-111.1°C - Calm Calm -- 28.91 in979.0 mb 0.00 in0.0 mm 0.00 in0.0 mm 0.00 in0.0 mm
05:48 PM 47.8°F8.8°C -168.0°F-111.1°C - Calm Calm -- 28.92 in979.3 mb 0.00 in0.0 mm 0.00 in0.0 mm 0.00 in0.0 mm
06:03 PM 47.7°F8.7°C -168.0°F-111.1°C - Calm Calm 0.6 mph1.0 kmh 28.92 in979.3 mb 0.00 in0.0 mm 0.00 in0.0 mm 0.00 in0.0 mm
06:18 PM 47.5°F8.6°C -168.1°F-111.2°C - Calm Calm 2.0 mph3.2 kmh 28.92 in979.3 mb 0.00 in0.0 mm 0.00 in0.0 mm 0.00 in0.0 mm
06:33 PM 47.8°F8.8°C -168.0°F-111.1°C - 0.6 mph N1.0 kmh N 3.4 mph5.5 kmh 28.93 in979.7 mb 0.00 in0.0 mm 0.00 in0.0 mm 0.00 in0.0 mm
06:48 PM 48.2°F9.0°C -168.0°F-111.1°C - Calm Calm 0.6 mph1.0 kmh 28.93 in979.7 mb 0.00 in0.0 mm 0.00 in0.0 mm 0.00 in0.0 mm
07:03 PM 47.7°F8.7°C -168.0°F-111.1°C - Calm Calm -- 28.94 in980.0 mb 0.00 in0.0 mm 0.00 in0.0 mm 0.00 in0.0 mm
07:18 PM 47.5°F8.6°C -168.1°F-111.2°C - Calm Calm 2.0 mph3.2 kmh 28.94 in980.0 mb 0.00 in0.0 mm 0.00 in0.0 mm 0.00 in0.0 mm
07:33 PM 46.8°F8.2°C -168.1°F-111.2°C - Calm Calm -- 28.95 in980.4 mb 0.00 in0.0 mm 0.00 in0.0 mm 0.00 in0.0 mm
07:48 PM 46.9°F8.3°C -168.1°F-111.2°C - Calm Calm 0.6 mph1.0 kmh 28.96 in980.7 mb 0.00 in0.0 mm 0.00 in0.0 mm 0.00 in0.0 mm
08:03 PM 47.3°F8.5°C -168.1°F-111.2°C - Calm Calm 2.8 mph4.5 kmh 28.97 in981.0 mb 0.00 in0.0 mm 0.00 in0.0 mm 0.00 in0.0 mm
08:18 PM 47.3°F8.5°C -168.1°F-111.2°C - Calm Calm 3.4 mph5.5 kmh 28.98 in981.4 mb 0.00 in0.0 mm 0.00 in0.0 mm 0.00 in0.0 mm
08:33 PM 47.3°F8.5°C -168.1°F-111.2°C - Calm Calm -- 28.97 in981.0 mb 0.00 in0.0 mm 0.00 in0.0 mm 0.00 in0.0 mm
08:48 PM 47.1°F8.4°C -168.1°F-111.2°C - Calm Calm 2.8 mph4.5 kmh 28.98 in981.4 mb 0.00 in0.0 mm 0.00 in0.0 mm 0.00 in0.0 mm
09:03 PM 47.1°F8.4°C -168.1°F-111.2°C - Calm Calm 0.6 mph1.0 kmh 28.99 in981.7 mb 0.00 in0.0 mm 0.00 in0.0 mm 0.00 in0.0 mm
09:18 PM 46.8°F8.2°C -168.1°F-111.2°C - Calm Calm -- 28.99 in981.7 mb 0.00 in0.0 mm 0.00 in0.0 mm 0.00 in0.0 mm
09:33 PM 46.8°F8.2°C -168.1°F-111.2°C - Calm Calm 2.8 mph4.5 kmh 29.00 in982.1 mb 0.00 in0.0 mm 0.00 in0.0 mm 0.00 in0.0 mm
09:48 PM 46.6°F8.1°C -168.1°F-111.2°C - 1.4 mph N2.3 kmh N 3.4 mph5.5 kmh 29.00 in982.1 mb 0.00 in0.0 mm 0.00 in0.0 mm 0.00 in0.0 mm
10:03 PM 46.4°F8.0°C -168.2°F-111.2°C - 0.6 mph N1.0 kmh N 2.8 mph4.5 kmh 29.01 in982.4 mb 0.00 in0.0 mm 0.00 in0.0 mm 0.00 in0.0 mm
10:18 PM 46.2°F7.9°C -168.2°F-111.2°C - 1.4 mph N2.3 kmh N 3.4 mph5.5 kmh 29.02 in982.7 mb 0.00 in0.0 mm 0.00 in0.0 mm 0.00 in0.0 mm
10:33 PM 45.5°F7.5°C -168.3°F-111.3°C - 1.4 mph N2.3 kmh N 4.0 mph6.4 kmh 29.02 in982.7 mb 0.00 in0.0 mm 0.00 in0.0 mm 0.00 in0.0 mm
10:48 PM 44.6°F7.0°C -168.3°F-111.3°C - 2.8 mph N4.5 kmh N 4.8 mph7.7 kmh 29.04 in983.4 mb 0.00 in0.0 mm 0.00 in0.0 mm 0.00 in0.0 mm
11:03 PM 43.3°F6.3°C -168.5°F-111.4°C - 0.6 mph N1.0 kmh N 2.8 mph4.5 kmh 29.05 in983.7 mb 0.00 in0.0 mm 0.00 in0.0 mm 0.00 in0.0 mm
11:18 PM 42.4°F5.8°C -168.6°F-111.4°C - 0.6 mph N1.0 kmh N 3.4 mph5.5 kmh 29.05 in983.7 mb 0.00 in0.0 mm 0.00 in0.0 mm 0.00 in0.0 mm
11:33 PM 41.9°F5.5°C -168.6°F-111.4°C - 2.0 mph N3.2 kmh N 4.8 mph7.7 kmh 29.05 in983.7 mb 0.00 in0.0 mm 0.00 in0.0 mm 0.00 in0.0 mm
11:48 PM 41.9°F5.5°C -168.6°F-111.4°C - Calm Calm 2.0 mph3.2 kmh 29.06 in984.1 mb 0.00 in0.0 mm 0.00 in0.0 mm 0.00 in0.0 mm